createdAt,value
2023-04-17T00:02:18.236Z,19.10
2023-04-17T00:04:46.002Z,20.30
2023-04-17T00:07:12.594Z,20.80
2023-04-17T00:09:39.034Z,20.50
2023-04-17T00:12:05.747Z,19.90
2023-04-17T00:14:32.287Z,20.10
2023-04-17T00:16:58.794Z,20.70
2023-04-17T00:19:25.285Z,20.70
2023-04-17T00:21:54.316Z,20.30
2023-04-17T00:24:20.802Z,20.30
2023-04-17T00:26:47.513Z,20.90
2023-04-17T00:29:14.104Z,19.70
2023-04-17T00:31:40.966Z,20.00
2023-04-17T00:34:07.635Z,20.20
2023-04-17T00:36:34.262Z,19.60
2023-04-17T00:39:00.874Z,18.30
2023-04-17T00:41:27.701Z,19.00
2023-04-17T00:43:54.259Z,19.90
2023-04-17T00:46:20.967Z,19.10
2023-04-17T00:48:47.885Z,20.30
2023-04-17T00:51:14.960Z,20.40
2023-04-17T00:53:41.641Z,18.10
2023-04-17T00:56:08.982Z,17.00
2023-04-17T00:58:38.685Z,19.60
2023-04-17T01:01:05.914Z,17.60
2023-04-17T01:03:33.063Z,18.40
2023-04-17T01:06:00.023Z,18.10
2023-04-17T01:08:26.844Z,17.50
2023-04-17T01:10:53.579Z,16.30
2023-04-17T01:13:22.676Z,17.50
2023-04-17T01:15:56.704Z,16.60
2023-04-17T01:18:23.607Z,16.60
2023-04-17T01:20:50.266Z,15.10
2023-04-17T01:23:16.785Z,15.90
2023-04-17T01:25:45.717Z,18.30
2023-04-17T01:28:15.844Z,15.90
2023-04-17T01:30:42.468Z,15.80
2023-04-17T01:33:09.282Z,16.30
2023-04-17T01:35:35.955Z,15.20
2023-04-17T01:38:02.537Z,15.50
2023-04-17T01:40:32.163Z,14.60
2023-04-17T01:42:58.788Z,14.70
2023-04-17T01:45:27.695Z,15.50
2023-04-17T01:47:54.292Z,15.20
2023-04-17T01:50:20.781Z,15.50
2023-04-17T01:52:47.689Z,16.90
2023-04-17T01:55:14.235Z,15.40
2023-04-17T01:57:41.729Z,15.70
2023-04-17T02:00:22.194Z,18.10
2023-04-17T02:02:48.995Z,16.60
2023-04-17T02:05:18.516Z,17.80
2023-04-17T02:07:45.043Z,18.80
2023-04-17T02:10:11.589Z,16.90
2023-04-17T02:12:38.265Z,18.20
2023-04-17T02:15:05.196Z,18.50
2023-04-17T02:17:31.697Z,18.00
2023-04-17T02:19:58.289Z,18.60
2023-04-17T02:22:28.032Z,19.50
2023-04-17T02:24:54.678Z,18.60
2023-04-17T02:27:21.385Z,17.70
2023-04-17T02:29:47.854Z,18.80
2023-04-17T02:32:16.882Z,18.90
2023-04-17T02:34:43.435Z,18.80
2023-04-17T02:37:10.147Z,17.80
2023-04-17T02:39:36.769Z,18.60
2023-04-17T02:42:06.121Z,17.90
2023-04-17T02:44:32.708Z,17.40
2023-04-17T02:46:59.450Z,17.90
2023-04-17T02:49:26.384Z,18.20
2023-04-17T02:51:53.235Z,24.60
2023-04-17T02:54:22.962Z,21.00
2023-04-17T02:57:15.492Z,19.10
2023-04-17T02:59:42.415Z,19.10
2023-04-17T03:02:14.745Z,18.80
2023-04-17T03:04:42.232Z,19.10
2023-04-17T03:07:09.778Z,19.90
2023-04-17T03:09:38.078Z,19.80
2023-04-17T03:12:05.247Z,18.60
2023-04-17T03:14:31.828Z,19.10
2023-04-17T03:16:58.483Z,19.40
2023-04-17T03:19:25.145Z,19.20
2023-04-17T03:21:54.753Z,19.50
2023-04-17T03:24:21.335Z,18.90
2023-04-17T03:26:50.927Z,20.10
2023-04-17T03:29:17.526Z,20.80
2023-04-17T03:31:44.206Z,20.90
2023-04-17T03:34:10.783Z,21.00
2023-04-17T03:36:39.619Z,20.70
2023-04-17T03:39:06.134Z,19.30
2023-04-17T03:41:32.779Z,19.00
2023-04-17T03:43:59.499Z,19.80
2023-04-17T03:46:26.231Z,22.20
2023-04-17T03:48:52.824Z,19.70
2023-04-17T03:51:19.587Z,20.40
2023-04-17T03:53:46.323Z,20.10
2023-04-17T03:56:12.776Z,19.80
2023-04-17T03:58:39.379Z,20.30
2023-04-17T04:01:13.971Z,20.60
2023-04-17T04:03:40.799Z,20.70
2023-04-17T04:06:07.699Z,21.00
2023-04-17T04:08:34.274Z,21.10
2023-04-17T04:11:02.451Z,21.80
2023-04-17T04:13:29.060Z,20.80
2023-04-17T04:15:55.678Z,21.20
2023-04-17T04:18:22.330Z,21.90
2023-04-17T04:20:53.689Z,20.90
2023-04-17T04:23:24.385Z,21.90
2023-04-17T04:25:51.064Z,22.70
2023-04-17T04:28:17.724Z,21.90
2023-04-17T04:30:50.004Z,22.00
2023-04-17T04:33:19.437Z,23.10
2023-04-17T04:35:48.838Z,22.30
2023-04-17T04:38:16.453Z,20.90
2023-04-17T04:40:51.474Z,20.00
2023-04-17T04:43:19.598Z,20.00
2023-04-17T04:45:48.152Z,19.60
2023-04-17T04:48:14.795Z,19.40
2023-04-17T04:50:41.190Z,19.50
2023-04-17T04:53:07.851Z,18.10
2023-04-17T04:55:34.890Z,18.00
2023-04-17T04:58:01.289Z,16.80
2023-04-17T05:00:27.769Z,18.20
2023-04-17T05:02:54.551Z,17.70
2023-04-17T05:05:21.247Z,17.00
2023-04-17T05:07:47.703Z,17.60
2023-04-17T05:10:14.284Z,18.40
2023-04-17T05:12:41.726Z,18.10
2023-04-17T05:15:08.607Z,17.10
2023-04-17T05:17:35.779Z,19.00
2023-04-17T05:20:06.287Z,26.20
2023-04-17T05:22:32.948Z,21.40
2023-04-17T05:24:59.510Z,26.30
2023-04-17T05:27:26.298Z,19.30
2023-04-17T05:29:52.727Z,19.30
2023-04-17T05:32:19.347Z,19.70
2023-04-17T05:34:46.088Z,18.30
2023-04-17T05:37:12.568Z,18.00
2023-04-17T05:39:39.066Z,17.90
2023-04-17T05:42:05.703Z,16.50
2023-04-17T05:44:32.366Z,15.40
2023-04-17T05:46:59.641Z,15.60
2023-04-17T05:49:26.300Z,15.40
2023-04-17T05:51:52.886Z,13.30
2023-04-17T05:54:19.529Z,14.80
2023-04-17T05:56:46.798Z,15.20
2023-04-17T05:59:13.676Z,15.40
2023-04-17T06:01:40.753Z,14.90
2023-04-17T06:04:07.410Z,13.90
2023-04-17T06:06:34.292Z,14.50
2023-04-17T06:09:00.851Z,15.50
2023-04-17T06:11:27.486Z,15.40
2023-04-17T06:13:54.062Z,15.50
2023-04-17T06:16:21.199Z,15.90
2023-04-17T06:18:47.744Z,16.10
2023-04-17T06:21:14.370Z,16.00
2023-04-17T06:23:40.832Z,16.40
2023-04-17T06:26:07.376Z,15.50
2023-04-17T06:28:35.046Z,16.90
2023-04-17T06:31:01.915Z,17.10
2023-04-17T06:33:28.565Z,16.90
2023-04-17T06:35:55.566Z,16.30
2023-04-17T06:38:22.125Z,16.00
2023-04-17T06:40:50.151Z,16.10
2023-04-17T06:43:17.944Z,16.40
2023-04-17T06:45:44.529Z,17.60
2023-04-17T06:48:11.068Z,16.40
2023-04-17T06:50:37.706Z,17.60
2023-04-17T06:53:04.246Z,16.60
2023-04-17T06:55:30.844Z,17.80
2023-04-17T06:57:57.586Z,17.30
2023-04-17T07:00:24.137Z,16.90
2023-04-17T07:02:50.860Z,18.20
2023-04-17T07:05:17.686Z,17.50
2023-04-17T07:07:44.153Z,18.60
2023-04-17T07:10:10.753Z,18.30
2023-04-17T07:12:37.373Z,19.10
2023-04-17T07:15:04.115Z,17.20
2023-04-17T07:17:31.068Z,20.50
2023-04-17T07:19:57.580Z,19.50
2023-04-17T07:22:26.629Z,25.60
2023-04-17T07:24:53.891Z,18.90
2023-04-17T07:27:21.201Z,20.00
2023-04-17T07:29:53.613Z,18.70
2023-04-17T07:32:21.364Z,18.10
2023-04-17T07:34:47.978Z,18.70
2023-04-17T07:37:14.877Z,16.30
2023-04-17T07:39:41.527Z,17.30
2023-04-17T07:42:08.423Z,17.40
2023-04-17T07:44:34.967Z,18.10
2023-04-17T07:47:01.715Z,18.10
2023-04-17T07:49:28.527Z,17.40
2023-04-17T07:51:55.499Z,16.60
2023-04-17T07:54:22.072Z,17.30
2023-04-17T07:56:51.259Z,19.00
2023-04-17T07:59:17.782Z,17.50
2023-04-17T08:01:44.408Z,17.50
2023-04-17T08:04:11.328Z,17.70
2023-04-17T08:06:38.462Z,18.00
2023-04-17T08:09:04.970Z,19.70
2023-04-17T08:11:33.065Z,18.70
2023-04-17T08:14:02.296Z,18.30
2023-04-17T08:16:28.934Z,18.40
2023-04-17T08:18:55.651Z,19.40
2023-04-17T08:21:22.064Z,19.20
2023-04-17T08:23:48.815Z,17.50
2023-04-17T08:26:18.398Z,19.00
2023-04-17T08:28:45.277Z,17.50
2023-04-17T08:31:11.853Z,18.50
2023-04-17T08:33:38.539Z,19.60
2023-04-17T08:36:08.025Z,18.50
2023-04-17T08:39:09.203Z,16.60
2023-04-17T08:41:56.275Z,18.00
2023-04-17T08:44:22.834Z,18.30
2023-04-17T08:46:52.452Z,17.60
2023-04-17T08:49:19.184Z,16.00
2023-04-17T08:51:46.629Z,16.60
2023-04-17T08:54:13.656Z,17.10
2023-04-17T08:56:40.135Z,18.40
2023-04-17T08:59:06.733Z,17.40
2023-04-17T09:01:34.128Z,14.50
2023-04-17T09:04:01.069Z,14.90
2023-04-17T09:06:27.772Z,15.90
2023-04-17T09:08:58.499Z,15.20
2023-04-17T09:11:25.815Z,14.60
2023-04-17T09:13:52.794Z,13.50
2023-04-17T09:16:19.593Z,13.70
2023-04-17T09:18:46.998Z,11.70
2023-04-17T09:21:15.725Z,11.30
2023-04-17T09:23:47.751Z,10.20
2023-04-17T09:26:15.210Z,11.10
2023-04-17T09:28:59.188Z,11.10
2023-04-17T09:31:26.888Z,11.60
2023-04-17T09:33:57.516Z,12.50
2023-04-17T09:36:24.330Z,12.00
2023-04-17T09:38:50.962Z,16.30
2023-04-17T09:41:28.288Z,11.80
2023-04-17T09:43:55.945Z,11.50
2023-04-17T09:46:40.536Z,10.30
2023-04-17T09:49:10.634Z,11.00
2023-04-17T09:51:38.022Z,10.30
2023-04-17T09:54:06.168Z,13.70
2023-04-17T09:56:33.356Z,10.10
2023-04-17T09:59:02.157Z,9.20
2023-04-17T10:01:29.779Z,10.90
2023-04-17T10:03:57.683Z,11.00
2023-04-17T10:06:26.070Z,11.50
2023-04-17T10:08:53.334Z,12.20
2023-04-17T10:11:21.398Z,13.20
2023-04-17T10:13:52.438Z,14.30
2023-04-17T10:16:19.287Z,12.90
2023-04-17T10:18:46.037Z,11.70
2023-04-17T10:21:21.268Z,12.90
2023-04-17T10:23:48.551Z,13.80
2023-04-17T10:26:24.712Z,13.20
2023-04-17T10:28:52.513Z,12.50
2023-04-17T10:31:20.059Z,12.50
2023-04-17T10:33:50.468Z,11.50
2023-04-17T10:36:35.905Z,11.80
2023-04-17T10:39:12.961Z,12.00
2023-04-17T10:41:58.597Z,12.30
2023-04-17T10:44:25.812Z,12.50
2023-04-17T10:46:52.515Z,12.90
2023-04-17T10:49:22.356Z,11.50
2023-04-17T10:51:49.441Z,12.00
2023-04-17T10:54:16.115Z,12.10
2023-04-17T10:56:42.706Z,12.60
2023-04-17T10:59:10.125Z,12.90
2023-04-17T11:01:36.826Z,12.20
2023-04-17T11:04:03.749Z,12.20
2023-04-17T11:06:31.035Z,12.20
2023-04-17T11:08:58.796Z,11.70
2023-04-17T11:11:35.292Z,10.50
2023-04-17T11:14:13.521Z,11.80
2023-04-17T11:16:42.083Z,11.30
2023-04-17T11:19:12.562Z,12.00
2023-04-17T11:21:41.375Z,12.80
2023-04-17T11:24:08.206Z,11.50
2023-04-17T11:26:47.286Z,10.80
2023-04-17T11:29:20.407Z,12.00
2023-04-17T11:31:47.920Z,11.70
2023-04-17T11:34:15.752Z,11.90
2023-04-17T11:36:49.264Z,12.30
2023-04-17T11:39:16.518Z,12.20
2023-04-17T11:41:44.039Z,12.10
2023-04-17T11:44:14.261Z,13.00
2023-04-17T11:46:40.948Z,11.80
2023-04-17T11:49:07.989Z,12.40
2023-04-17T11:51:34.838Z,10.90
2023-04-17T11:54:01.276Z,9.00
2023-04-17T11:56:28.926Z,10.60
2023-04-17T11:58:56.654Z,9.80
2023-04-17T12:01:24.934Z,15.60
2023-04-17T12:03:52.573Z,10.70
2023-04-17T12:06:19.607Z,9.60
2023-04-17T12:08:53.599Z,10.20
2023-04-17T12:11:24.098Z,9.10
2023-04-17T12:13:54.600Z,10.30
2023-04-17T12:16:22.157Z,9.80
2023-04-17T12:18:48.989Z,8.80
2023-04-17T12:21:15.696Z,10.50
2023-04-17T12:23:42.517Z,9.90
2023-04-17T12:26:09.082Z,9.70
2023-04-17T12:28:36.057Z,10.00
2023-04-17T12:31:04.233Z,8.80
2023-04-17T12:33:31.552Z,9.20
2023-04-17T12:36:02.540Z,12.50
2023-04-17T12:38:29.679Z,16.50
2023-04-17T12:40:56.556Z,9.10
2023-04-17T12:43:23.565Z,8.40
2023-04-17T12:45:51.742Z,7.80
2023-04-17T12:48:18.400Z,7.00
2023-04-17T12:50:45.395Z,7.20
2023-04-17T12:53:12.666Z,6.80
2023-04-17T12:55:40.505Z,6.90
2023-04-17T12:58:07.540Z,7.20
2023-04-17T13:00:34.078Z,7.30
2023-04-17T13:03:00.778Z,6.60
2023-04-17T13:05:28.420Z,6.70
2023-04-17T13:07:56.001Z,6.70
2023-04-17T13:10:23.099Z,6.30
2023-04-17T13:12:49.642Z,5.70
2023-04-17T13:15:16.219Z,5.70
2023-04-17T13:17:43.075Z,5.90
2023-04-17T13:20:10.195Z,6.40
2023-04-17T13:22:36.693Z,6.20
2023-04-17T13:25:03.620Z,5.80
2023-04-17T13:27:30.544Z,5.80
2023-04-17T13:29:58.300Z,6.20
2023-04-17T13:32:25.005Z,5.80
2023-04-17T13:34:51.528Z,6.40
2023-04-17T13:37:18.354Z,6.50
2023-04-17T13:39:45.255Z,7.20
2023-04-17T13:42:15.036Z,6.00
2023-04-17T13:44:41.501Z,7.50
2023-04-17T13:47:08.556Z,6.50
2023-04-17T13:49:35.296Z,6.70
2023-04-17T13:52:05.874Z,6.60
2023-04-17T13:54:32.407Z,5.80
2023-04-17T13:56:59.022Z,6.00
2023-04-17T13:59:25.542Z,6.40
2023-04-17T14:01:52.271Z,6.50
2023-04-17T14:04:18.965Z,5.80
2023-04-17T14:06:49.182Z,5.50
2023-04-17T14:09:16.119Z,5.40
2023-04-17T14:11:43.031Z,6.10
2023-04-17T14:14:11.955Z,5.70
2023-04-17T14:16:39.655Z,6.10
2023-04-17T14:19:14.180Z,6.00
2023-04-17T14:21:41.772Z,5.80
2023-04-17T14:24:12.701Z,6.00
2023-04-17T14:26:44.653Z,5.70
2023-04-17T14:29:15.319Z,5.50
2023-04-17T14:32:10.539Z,5.20
2023-04-17T14:34:37.024Z,5.30
2023-04-17T14:37:03.668Z,5.60
2023-04-17T14:39:31.804Z,5.30
2023-04-17T14:41:59.752Z,5.60
2023-04-17T14:44:28.361Z,6.30
2023-04-17T14:46:56.118Z,5.90
2023-04-17T14:49:22.602Z,5.70
2023-04-17T14:51:49.181Z,5.20
2023-04-17T14:54:15.858Z,4.60
2023-04-17T14:56:42.489Z,5.10
2023-04-17T14:59:08.924Z,4.80
2023-04-17T15:01:35.492Z,4.80
2023-04-17T15:04:03.199Z,5.00
2023-04-17T15:06:29.896Z,5.10
2023-04-17T15:08:56.435Z,4.60
2023-04-17T15:11:23.034Z,5.20
2023-04-17T15:13:49.609Z,5.20
2023-04-17T15:16:16.096Z,5.30
2023-04-17T15:18:42.619Z,4.50
2023-04-17T15:21:09.065Z,5.50
2023-04-17T15:23:36.568Z,5.50
2023-04-17T15:26:03.099Z,6.00
2023-04-17T15:28:29.682Z,6.00
2023-04-17T15:30:56.283Z,5.20
2023-04-17T15:33:22.722Z,10.80
2023-04-17T15:35:53.472Z,15.00
2023-04-17T15:38:19.925Z,7.40
2023-04-17T15:40:46.440Z,8.60
2023-04-17T15:43:12.913Z,7.80
2023-04-17T15:45:39.407Z,5.90
2023-04-17T15:48:06.231Z,7.10
2023-04-17T15:50:33.495Z,7.10
2023-04-17T15:53:00.574Z,8.30
2023-04-17T15:55:27.243Z,7.40
2023-04-17T15:57:54.095Z,6.40
2023-04-17T16:00:23.793Z,5.70
2023-04-17T16:02:51.375Z,7.70
2023-04-17T16:05:18.480Z,7.50
2023-04-17T16:07:45.129Z,6.40
2023-04-17T16:10:14.962Z,5.50
2023-04-17T16:12:42.597Z,7.90
2023-04-17T16:15:14.005Z,6.00
2023-04-17T16:17:41.140Z,6.50
2023-04-17T16:20:07.984Z,7.30
2023-04-17T16:22:34.562Z,6.60
2023-04-17T16:25:03.981Z,6.30
2023-04-17T16:27:31.509Z,3.70
2023-04-17T16:29:58.272Z,4.40
2023-04-17T16:32:25.034Z,4.20
2023-04-17T16:34:51.648Z,4.00
2023-04-17T16:37:18.237Z,4.20
2023-04-17T16:39:44.819Z,4.40
2023-04-17T16:42:11.398Z,5.20
2023-04-17T16:44:37.846Z,5.20
2023-04-17T16:47:13.132Z,4.50
2023-04-17T16:49:41.133Z,5.40
2023-04-17T16:52:07.568Z,5.30
2023-04-17T16:54:34.118Z,4.40
2023-04-17T16:57:00.687Z,6.10
2023-04-17T16:59:27.288Z,4.90
2023-04-17T17:01:55.042Z,7.10
2023-04-17T17:04:21.746Z,7.30
2023-04-17T17:06:48.398Z,7.90
2023-04-17T17:12:27.922Z,8.20
2023-04-17T17:14:54.666Z,6.20
2023-04-17T17:17:22.611Z,7.00
2023-04-17T17:19:49.229Z,11.90
2023-04-17T17:22:15.718Z,21.10
2023-04-17T17:24:44.191Z,21.70
2023-04-17T17:27:10.767Z,11.00
2023-04-17T17:29:37.414Z,7.40
2023-04-17T17:32:08.521Z,8.10
2023-04-17T17:34:35.763Z,7.50
2023-04-17T17:37:02.482Z,6.60
2023-04-17T17:39:29.139Z,4.70
2023-04-17T17:41:56.670Z,5.20
2023-04-17T17:44:28.862Z,7.70
2023-04-17T17:46:55.629Z,6.90
2023-04-17T17:49:22.234Z,6.60
2023-04-17T17:51:48.914Z,6.30
2023-04-17T17:54:15.628Z,7.30
2023-04-17T17:56:42.180Z,5.50
2023-04-17T17:59:08.690Z,6.50
2023-04-17T18:01:35.283Z,5.30
2023-04-17T18:04:02.150Z,5.10
2023-04-17T18:06:29.014Z,6.20
2023-04-17T18:08:57.304Z,6.80
2023-04-17T18:11:26.849Z,6.60
2023-04-17T18:13:53.342Z,6.30
2023-04-17T18:16:20.160Z,7.90
2023-04-17T18:18:46.759Z,7.40
2023-04-17T18:21:15.659Z,7.90
2023-04-17T18:23:42.193Z,7.60
2023-04-17T18:26:08.943Z,7.80
2023-04-17T18:28:35.697Z,7.90
2023-04-17T18:31:02.428Z,7.30
2023-04-17T18:33:29.025Z,7.70
2023-04-17T18:35:55.573Z,9.00
2023-04-17T18:38:22.240Z,8.60
2023-04-17T18:40:52.686Z,7.60
2023-04-17T18:43:19.363Z,6.40
2023-04-17T18:45:45.867Z,6.30
2023-04-17T18:48:12.534Z,6.10
2023-04-17T18:50:39.097Z,6.20
2023-04-17T18:53:06.456Z,5.70
2023-04-17T18:55:34.534Z,5.20
2023-04-17T18:58:01.409Z,5.70
2023-04-17T19:00:28.160Z,5.90
2023-04-17T19:02:55.224Z,10.00
2023-04-17T19:05:22.562Z,8.20
2023-04-17T19:07:50.527Z,7.10
2023-04-17T19:10:17.513Z,7.20
2023-04-17T19:12:44.131Z,8.70
2023-04-17T19:15:10.779Z,7.90
2023-04-17T19:17:37.812Z,9.50
2023-04-17T19:20:04.584Z,10.30
2023-04-17T19:22:31.116Z,7.80
2023-04-17T19:24:57.653Z,6.80
2023-04-17T19:27:25.753Z,7.20
2023-04-17T19:29:53.611Z,7.50
2023-04-17T19:32:20.209Z,7.10
2023-04-17T19:34:47.170Z,7.20
2023-04-17T19:37:13.883Z,6.70
2023-04-17T19:39:40.441Z,6.40
2023-04-17T19:42:07.064Z,8.30
2023-04-17T19:44:33.859Z,8.70
2023-04-17T19:47:02.220Z,7.40
2023-04-17T19:49:28.844Z,8.10
2023-04-17T19:51:56.072Z,7.10
2023-04-17T19:54:22.615Z,8.50
2023-04-17T19:56:49.490Z,7.80
2023-04-17T19:59:16.061Z,7.50
2023-04-17T20:01:43.932Z,9.40
2023-04-17T20:04:12.080Z,9.10
2023-04-17T20:06:40.182Z,8.00
2023-04-17T20:09:06.754Z,7.30
2023-04-17T20:11:33.822Z,7.50
2023-04-17T20:14:00.305Z,7.60
2023-04-17T20:16:26.927Z,7.60
2023-04-17T20:18:55.775Z,6.40
2023-04-17T20:21:22.304Z,6.80
2023-04-17T20:23:49.061Z,7.60
2023-04-17T20:26:15.747Z,7.80
2023-04-17T20:28:42.286Z,7.50
2023-04-17T20:31:09.009Z,7.50
2023-04-17T20:33:35.811Z,7.40
2023-04-17T20:36:02.719Z,7.60
2023-04-17T20:38:29.220Z,8.10
2023-04-17T20:40:55.766Z,8.20
2023-04-17T20:43:22.404Z,8.20
2023-04-17T20:45:49.506Z,8.40
2023-04-17T20:48:16.271Z,8.00
2023-04-17T20:50:43.029Z,8.30
2023-04-17T20:53:12.835Z,8.60
2023-04-17T20:55:39.364Z,8.90
2023-04-17T20:58:05.935Z,8.10
2023-04-17T21:00:33.929Z,8.80
2023-04-17T21:03:00.650Z,13.20
2023-04-17T21:05:27.264Z,10.60
2023-04-17T21:07:53.909Z,9.00
2023-04-17T21:10:20.470Z,9.40
2023-04-17T21:12:47.053Z,7.70
2023-04-17T21:15:13.638Z,7.80
2023-04-17T21:17:40.301Z,8.60
2023-04-17T21:20:07.313Z,8.10
2023-04-17T21:22:36.179Z,9.00
2023-04-17T21:25:02.873Z,8.10
2023-04-17T21:27:29.440Z,7.80
2023-04-17T21:29:56.235Z,7.90
2023-04-17T21:32:22.727Z,8.50
2023-04-17T21:34:49.344Z,8.30
2023-04-17T21:37:15.809Z,7.60
2023-04-17T21:39:42.456Z,7.40
2023-04-17T21:42:09.382Z,8.40
2023-04-17T21:44:35.925Z,8.30
2023-04-17T21:47:02.427Z,8.10
2023-04-17T21:49:28.920Z,8.70
2023-04-17T21:51:55.912Z,8.30
2023-04-17T21:54:24.644Z,8.50
2023-04-17T21:56:51.086Z,8.40
2023-04-17T21:59:17.534Z,7.70
2023-04-17T22:01:44.071Z,7.80
2023-04-17T22:04:10.639Z,7.00
2023-04-17T22:06:37.181Z,8.60
2023-04-17T22:09:04.293Z,7.90
2023-04-17T22:11:30.780Z,8.00
2023-04-17T22:13:57.422Z,8.00
2023-04-17T22:16:24.020Z,7.10
2023-04-17T22:18:50.504Z,7.40
2023-04-17T22:21:35.371Z,7.30
2023-04-17T22:24:39.162Z,7.70
2023-04-17T22:27:24.092Z,7.70
2023-04-17T22:30:27.864Z,7.40
2023-04-17T22:33:12.856Z,7.60
2023-04-17T22:35:58.016Z,7.90
2023-04-17T22:38:24.432Z,7.20
2023-04-17T22:41:09.194Z,7.50
2023-04-17T22:43:38.755Z,8.60
2023-04-17T22:46:05.327Z,7.60
2023-04-17T22:48:32.056Z,8.10
2023-04-17T22:50:58.616Z,8.00
2023-04-17T22:53:25.510Z,7.20
2023-04-17T22:56:11.920Z,7.00
2023-04-17T22:58:38.364Z,8.00
2023-04-17T23:01:05.036Z,7.20
2023-04-17T23:03:31.847Z,7.10
2023-04-17T23:05:58.409Z,6.80
2023-04-17T23:08:24.935Z,7.50
2023-04-17T23:10:59.114Z,7.10
2023-04-17T23:13:26.310Z,7.50
2023-04-17T23:15:53.127Z,7.40
2023-04-17T23:18:19.791Z,7.60
2023-04-17T23:20:46.264Z,7.00
2023-04-17T23:23:12.973Z,7.70
2023-04-17T23:25:40.059Z,7.40
2023-04-17T23:28:06.744Z,7.30
2023-04-17T23:30:33.228Z,6.90
2023-04-17T23:33:02.470Z,7.50
2023-04-17T23:35:29.113Z,7.00
2023-04-17T23:37:55.639Z,7.40
2023-04-17T23:40:22.187Z,7.30
2023-04-17T23:42:48.622Z,7.40
2023-04-17T23:45:15.245Z,7.50
2023-04-17T23:47:41.844Z,8.30
2023-04-17T23:50:08.650Z,7.80
2023-04-17T23:52:35.443Z,7.90
2023-04-17T23:55:02.293Z,7.90
2023-04-17T23:57:29.090Z,8.10
2023-04-17T23:59:55.673Z,7.80
